Time;durP1;ratioP1;P1;durP2;ratioP2;P2;SDS_P1;SDS_P2;PMS_P1;PMS_P2;Temp;Humidity;BMP_temperature;BMP_pressure;BME280_temperature;BME280_humidity;BME280_pressure;Samples;Min_cycle;Max_cycle;Signal;HPM_P1;HPM_P2
2023/06/27 00:02:15;;;;;;;6.45;3.00;;;;;;;15.97;67.07;101856.16;5064450;28;20090;-75
2023/06/27 00:04:42;;;;;;;5.90;3.15;;;;;;;16.01;66.81;101855.13;5064172;28;20030;-74
2023/06/27 00:07:10;;;;;;;7.03;2.90;;;;;;;16.07;66.58;101851.38;5064812;28;20493;-74
2023/06/27 00:09:38;;;;;;;7.75;3.20;;;;;;;16.11;67.04;101847.66;5065026;28;20489;-74
2023/06/27 00:12:08;;;;;;;8.20;3.28;;;;;;;16.15;66.71;101854.59;5064747;28;20182;-74
2023/06/27 00:14:37;;;;;;;5.80;2.90;;;;;;;16.15;66.07;101847.47;5064288;28;20065;-74
2023/06/27 00:17:07;;;;;;;6.32;3.28;;;;;;;16.17;66.31;101850.09;5064742;28;20049;-74
2023/06/27 00:19:34;;;;;;;5.00;2.83;;;;;;;16.18;66.49;101854.47;5066316;28;20124;-74
2023/06/27 00:22:04;;;;;;;6.03;2.75;;;;;;;16.18;66.47;101854.47;5065320;28;20099;-74
2023/06/27 00:24:33;;;;;;;7.53;3.38;;;;;;;16.20;66.38;101854.44;5066070;28;20041;-75
2023/06/27 00:27:00;;;;;;;5.50;2.80;;;;;;;16.20;66.45;101865.06;5082582;28;20045;-75
2023/06/27 00:29:27;;;;;;;5.43;2.70;;;;;;;16.20;66.42;101857.94;5064016;28;20041;-74
2023/06/27 00:31:55;;;;;;;7.45;2.72;;;;;;;16.21;66.12;101850.84;5048051;28;20170;-74
2023/06/27 00:34:23;;;;;;;4.45;2.45;;;;;;;16.21;66.36;101848.19;5065415;28;20474;-75
2023/06/27 00:36:50;;;;;;;5.82;2.90;;;;;;;16.21;65.97;101845.53;5066146;28;20044;-74
2023/06/27 00:39:17;;;;;;;5.10;2.90;;;;;;;16.22;66.08;101849.94;5064479;28;20104;-74
2023/06/27 00:41:44;;;;;;;5.20;2.80;;;;;;;16.21;65.68;101845.53;5064961;28;20045;-74
2023/06/27 00:44:11;;;;;;;9.57;3.00;;;;;;;16.20;66.14;101834.00;5067211;28;20041;-74
2023/06/27 00:46:40;;;;;;;6.18;3.20;;;;;;;16.20;66.55;101843.78;5065014;28;20045;-74
2023/06/27 00:49:10;;;;;;;6.82;2.85;;;;;;;16.16;66.43;101851.03;5060435;28;20111;-75
2023/06/27 00:51:41;;;;;;;6.88;3.03;;;;;;;16.14;66.47;101848.41;5045016;28;20050;-75
2023/06/27 00:54:10;;;;;;;6.18;2.80;;;;;;;16.13;66.68;101848.47;5050647;28;20049;-75
2023/06/27 00:56:39;;;;;;;6.03;3.10;;;;;;;16.13;67.13;101844.00;5054513;28;20642;-74
2023/06/27 00:59:06;;;;;;;7.65;3.30;;;;;;;16.11;66.93;101848.53;5060685;28;20576;-74
2023/06/27 01:01:34;;;;;;;7.43;3.10;;;;;;;16.10;66.82;101851.22;5062418;28;20123;-74
2023/06/27 01:04:03;;;;;;;5.70;3.25;;;;;;;16.09;66.91;101854.81;5063093;28;20893;-74
2023/06/27 01:06:48;;;;;;;7.95;3.00;;;;;;;16.09;67.29;101862.78;5065227;28;20043;-74
2023/06/27 01:09:28;;;;;;;8.13;3.17;;;;;;;16.08;67.71;101853.97;5061082;28;20045;-73
2023/06/27 01:12:19;;;;;;;11.18;3.58;;;;;;;16.11;67.63;101847.66;5065237;28;20124;-73
2023/06/27 01:14:52;;;;;;;8.25;3.10;;;;;;;16.14;67.88;101844.88;5052517;28;20045;-73
2023/06/27 01:17:21;;;;;;;7.85;3.25;;;;;;;16.20;67.80;101855.28;5066320;28;20596;-75
2023/06/27 01:19:49;;;;;;;6.30;3.05;;;;;;;16.27;67.67;101846.16;5066385;28;20077;-75
2023/06/27 01:22:29;;;;;;;6.47;3.15;;;;;;;16.34;67.96;101852.09;5068399;28;20041;-75
2023/06/27 01:24:56;;;;;;;8.40;3.08;;;;;;;16.37;68.11;101848.47;5068051;28;20045;-75
2023/06/27 01:27:24;;;;;;;7.45;3.20;;;;;;;16.38;68.26;101843.06;5066547;28;20517;-74
2023/06/27 01:29:51;;;;;;;8.27;3.03;;;;;;;16.40;68.04;101841.22;5066202;28;20045;-75
2023/06/27 01:32:39;;;;;;;7.85;3.25;;;;;;;16.41;68.18;101842.97;5067725;28;20203;-75
2023/06/27 01:35:20;;;;;;;7.80;3.30;;;;;;;16.39;68.25;101838.59;5057889;28;20076;-74
2023/06/27 01:37:57;;;;;;;7.20;3.40;;;;;;;16.39;68.40;101836.84;5058359;28;20144;-74
2023/06/27 01:40:29;;;;;;;6.80;3.15;;;;;;;16.42;68.42;101836.72;5064483;28;20068;-74
2023/06/27 01:43:03;;;;;;;;;;;;;;;16.40;68.19;101835.91;5065642;28;20130;-74
2023/06/27 01:45:31;;;;;;;11.35;3.55;;;;;;;16.40;68.36;101838.56;5059793;28;19929;-76
2023/06/27 01:47:59;;;;;;;8.55;3.20;;;;;;;16.39;68.20;101839.50;5062060;28;20139;-77
2023/06/27 01:50:26;;;;;;;12.02;3.45;;;;;;;16.40;68.68;101838.56;5066124;28;20048;-76
2023/06/27 01:52:54;;;;;;;5.25;3.15;;;;;;;16.41;68.41;101842.97;5068070;28;20567;-72
2023/06/27 01:55:21;;;;;;;7.85;3.45;;;;;;;16.46;68.42;101842.78;5064146;28;20099;-73
2023/06/27 01:57:50;;;;;;;6.95;3.15;;;;;;;16.48;68.35;101837.38;5063236;28;20053;-72
2023/06/27 02:00:18;;;;;;;6.70;3.15;;;;;;;16.46;68.40;101832.13;5061426;28;20041;-72
2023/06/27 02:02:47;;;;;;;9.00;3.13;;;;;;;16.46;68.58;101830.34;5066179;28;20052;-73
2023/06/27 02:05:14;;;;;;;8.63;3.00;;;;;;;16.46;67.88;101829.47;5063968;28;20099;-71
2023/06/27 02:07:41;;;;;;;9.82;3.70;;;;;;;16.44;68.25;101826.00;5059178;28;20543;-72
2023/06/27 02:10:10;;;;;;;12.40;3.47;;;;;;;16.38;68.36;101821.78;5061314;28;20564;-71
2023/06/27 02:12:39;;;;;;;9.70;3.35;;;;;;;16.36;68.38;101828.97;5082234;28;20079;-72
2023/06/27 02:15:07;;;;;;;8.85;3.60;;;;;;;16.35;68.36;101829.88;5070610;28;20781;-72
2023/06/27 02:17:34;;;;;;;8.93;3.75;;;;;;;16.29;68.36;101830.97;5066758;28;20044;-72
2023/06/27 02:20:01;;;;;;;8.70;3.38;;;;;;;16.26;68.89;101828.47;5066194;28;20493;-72
2023/06/27 02:22:28;;;;;;;9.85;3.40;;;;;;;16.22;68.54;101825.97;5068108;28;20124;-73
2023/06/27 02:24:55;;;;;;;11.20;3.38;;;;;;;16.20;68.92;101828.69;5068023;28;20120;-73
2023/06/27 02:27:22;;;;;;;7.18;3.30;;;;;;;16.19;68.89;101828.75;5066055;28;20505;-73
2023/06/27 02:29:49;;;;;;;7.50;3.55;;;;;;;16.19;69.15;101826.94;5065524;28;20409;-73
2023/06/27 02:32:16;;;;;;;9.70;3.50;;;;;;;16.16;68.61;101827.09;5063261;28;20183;-73
2023/06/27 02:34:43;;;;;;;8.95;3.55;;;;;;;16.12;68.98;101825.44;5068140;28;20084;-73
2023/06/27 02:37:12;;;;;;;10.23;3.33;;;;;;;16.06;69.49;101823.91;5067280;28;20139;-74
2023/06/27 02:39:39;;;;;;;7.30;3.35;;;;;;;16.01;69.73;101822.31;5062333;28;20533;-74
2023/06/27 02:42:07;;;;;;;8.52;3.45;;;;;;;15.96;69.78;101823.38;5067736;28;20045;-74
2023/06/27 02:44:34;;;;;;;6.80;3.42;;;;;;;15.95;69.90;101821.66;5064878;28;20417;-75
2023/06/27 02:47:01;;;;;;;8.15;3.53;;;;;;;15.96;70.00;101819.84;5064074;28;20041;-73
2023/06/27 02:49:29;;;;;;;11.43;3.33;;;;;;;15.93;70.35;101819.94;5066634;28;20061;-74
2023/06/27 02:51:56;;;;;;;7.38;3.40;;;;;;;15.91;70.65;101816.50;5066329;28;20068;-76
2023/06/27 02:54:23;;;;;;;8.98;3.10;;;;;;;15.84;70.35;101827.34;5066885;28;22020;-77
2023/06/27 02:56:51;;;;;;;11.07;3.83;;;;;;;15.82;70.30;101809.69;5065657;28;20075;-78
2023/06/27 02:59:18;;;;;;;7.15;3.42;;;;;;;15.78;70.26;101814.25;5064401;28;20135;-79
2023/06/27 03:01:46;;;;;;;9.32;3.38;;;;;;;15.75;70.86;101819.69;5066557;28;21060;-75
2023/06/27 03:04:22;;;;;;;10.43;3.35;;;;;;;15.72;71.17;101825.09;5066496;28;20041;-75
2023/06/27 03:06:50;;;;;;;9.00;3.10;;;;;;;15.64;71.13;101821.84;5065970;28;20548;-76
2023/06/27 03:09:18;;;;;;;7.20;3.17;;;;;;;15.57;71.14;101823.84;5081610;28;20060;-78
2023/06/27 03:11:46;;;;;;;9.93;4.07;;;;;;;15.53;71.73;101822.25;5065770;28;20556;-76
2023/06/27 03:14:18;;;;;;;7.47;3.20;;;;;;;15.50;71.76;101817.03;5061715;28;20532;-77
2023/06/27 03:16:49;;;;;;;8.73;3.50;;;;;;;15.47;71.77;101819.78;5057588;28;20045;-76
2023/06/27 03:19:16;;;;;;;13.23;3.85;;;;;;;15.46;72.07;101824.25;5076822;28;20045;-77
2023/06/27 03:21:53;;;;;;;9.23;3.80;;;;;;;15.50;72.81;101830.31;5065791;28;20847;-76
2023/06/27 03:24:20;;;;;;;6.85;3.45;;;;;;;15.49;72.56;101839.22;5065304;28;20252;-76
2023/06/27 03:26:49;;;;;;;8.30;3.38;;;;;;;15.46;72.43;101831.38;5065334;28;20115;-76
2023/06/27 03:29:18;;;;;;;9.95;3.85;;;;;;;15.48;72.25;101818.88;5065975;28;20051;-76
2023/06/27 03:31:47;;;;;;;8.65;4.10;;;;;;;15.50;72.27;101819.69;5066792;28;20158;-77
2023/06/27 03:34:14;;;;;;;9.38;4.15;;;;;;;15.52;72.46;101821.38;5065396;28;20555;-76
2023/06/27 03:36:41;;;;;;;9.55;3.90;;;;;;;15.52;72.68;101818.72;5065511;28;20131;-76
2023/06/27 03:39:08;;;;;;;7.95;3.42;;;;;;;15.53;72.79;101815.13;5062989;28;20049;-76
2023/06/27 03:41:35;;;;;;;9.18;3.30;;;;;;;15.56;72.56;101823.94;5065439;28;20055;-77
2023/06/27 03:44:05;;;;;;;12.18;3.75;;;;;;;15.58;72.59;101822.09;5064316;28;20562;-76
2023/06/27 03:46:32;;;;;;;8.18;3.80;;;;;;;15.60;72.61;101828.22;5054274;28;20086;-76
2023/06/27 03:49:02;;;;;;;11.57;4.10;;;;;;;15.61;73.13;101829.97;5064278;28;20045;-76
2023/06/27 03:51:32;;;;;;;11.85;3.95;;;;;;;15.60;73.33;101826.41;5066457;28;20045;-76
2023/06/27 03:54:02;;;;;;;10.93;4.22;;;;;;;15.64;73.08;101832.50;5063246;28;20045;-76
2023/06/27 03:56:29;;;;;;;9.25;3.70;;;;;;;15.68;73.05;101831.47;5063560;28;20049;-76
2023/06/27 03:58:56;;;;;;;12.07;3.75;;;;;;;15.75;72.83;101837.44;5066059;28;20044;-76
2023/06/27 04:01:23;;;;;;;15.77;3.92;;;;;;;15.80;73.05;101820.41;5060582;28;20067;-76
2023/06/27 04:03:51;;;;;;;14.20;4.10;;;;;;;15.87;73.37;101826.41;5061772;28;20501;-82
2023/06/27 04:06:18;;;;;;;15.15;4.03;;;;;;;15.93;73.09;101828.81;5080629;28;20095;-79
2023/06/27 04:08:45;;;;;;;12.02;4.00;;;;;;;15.99;73.16;101823.25;5064882;28;20366;-79
2023/06/27 04:11:12;;;;;;;12.02;3.58;;;;;;;16.06;72.72;101829.22;5064778;28;20107;-78
2023/06/27 04:13:40;;;;;;;12.40;4.05;;;;;;;16.13;72.63;101837.84;5064235;28;20426;-77
2023/06/27 04:16:07;;;;;;;20.10;4.35;;;;;;;16.13;72.43;101829.84;5063417;28;20037;-77
2023/06/27 04:18:34;;;;;;;16.90;4.32;;;;;;;16.16;72.30;101827.09;5064555;28;20111;-77
2023/06/27 04:21:01;;;;;;;10.15;4.10;;;;;;;16.19;72.75;101836.72;5064446;28;20033;-77
2023/06/27 04:23:28;;;;;;;10.07;3.80;;;;;;;16.20;72.67;101835.81;5067921;28;20040;-75
2023/06/27 04:26:07;;;;;;;14.63;3.72;;;;;;;16.18;72.64;101827.88;5063551;28;20541;-74
2023/06/27 04:28:36;;;;;;;11.07;3.72;;;;;;;16.19;72.92;101831.41;5062507;28;20045;-74
2023/06/27 04:31:03;;;;;;;11.20;3.58;;;;;;;16.18;72.82;101827.88;5065230;28;20089;-75
2023/06/27 04:33:30;;;;;;;11.57;4.25;;;;;;;16.19;73.12;101829.59;5054932;28;20115;-76
2023/06/27 04:36:03;;;;;;;11.70;3.80;;;;;;;16.20;73.24;101836.66;5054831;28;20059;-77
2023/06/27 04:38:39;;;;;;;13.38;4.10;;;;;;;16.22;73.22;101834.81;5055746;28;20049;-77
2023/06/27 04:41:11;;;;;;;12.25;3.97;;;;;;;16.25;73.09;101837.38;5054817;28;20048;-77
2023/06/27 04:43:41;;;;;;;12.93;3.80;;;;;;;16.29;73.41;101836.31;5051536;28;20049;-76
2023/06/27 04:46:09;;;;;;;12.40;3.97;;;;;;;16.36;73.02;101828.97;5036152;28;20107;-74
2023/06/27 04:48:36;;;;;;;16.73;4.43;;;;;;;16.37;72.93;101821.84;5031562;28;20104;-71
2023/06/27 04:51:04;;;;;;;16.48;4.47;;;;;;;16.39;72.94;101825.31;5038295;28;20494;-70
2023/06/27 04:53:32;;;;;;;16.00;4.55;;;;;;;16.41;72.86;101834.09;5038046;28;20041;-70
2023/06/27 04:55:59;;;;;;;13.25;4.60;;;;;;;16.45;72.72;101836.56;5047779;28;20045;-70
2023/06/27 04:58:26;;;;;;;19.75;5.00;;;;;;;16.46;72.61;101835.66;5041347;28;20615;-70
2023/06/27 05:00:53;;;;;;;13.75;4.32;;;;;;;16.51;72.47;101834.63;5046238;28;20048;-70
2023/06/27 05:03:20;;;;;;;14.05;4.25;;;;;;;16.51;72.47;101842.59;5049327;28;20037;-70
2023/06/27 05:05:49;;;;;;;11.73;4.22;;;;;;;16.57;72.67;101847.66;5040997;28;20046;-70
2023/06/27 05:08:16;;;;;;;19.77;4.78;;;;;;;16.59;72.50;101849.34;5040848;28;20194;-70
2023/06/27 05:10:44;;;;;;;11.07;4.05;;;;;;;16.62;72.47;101853.69;5041143;28;20100;-69
2023/06/27 05:13:15;;;;;;;13.93;4.70;;;;;;;16.66;72.35;101849.13;5039200;28;20845;-70
2023/06/27 05:15:42;;;;;;;12.05;4.55;;;;;;;16.67;72.64;101850.84;5042022;28;20092;-70
2023/06/27 05:18:12;;;;;;;18.05;5.22;;;;;;;16.65;72.09;101850.88;5030097;28;20154;-70
2023/06/27 05:20:43;;;;;;;13.80;4.22;;;;;;;16.70;72.24;101842.72;5041588;28;20961;-71
2023/06/27 05:23:11;;;;;;;14.27;4.80;;;;;;;16.71;71.74;101848.00;5039629;28;20046;-70
2023/06/27 05:25:38;;;;;;;12.50;5.05;;;;;;;16.86;71.65;101845.63;5039281;28;20528;-70
2023/06/27 05:28:07;;;;;;;14.52;4.90;;;;;;;17.20;70.80;101846.94;5036272;28;20120;-71
2023/06/27 05:30:35;;;;;;;12.13;4.03;;;;;;;17.78;69.16;101842.66;5039636;28;20049;-71
2023/06/27 05:33:02;;;;;;;15.30;4.40;;;;;;;18.71;67.20;101838.38;5043548;28;20572;-71
2023/06/27 05:35:29;;;;;;;14.98;4.32;;;;;;;19.87;63.72;101837.88;5042891;28;20049;-71
2023/06/27 05:37:58;;;;;;;12.57;4.43;;;;;;;20.99;61.15;101839.72;5032794;28;20036;-70
2023/06/27 05:40:25;;;;;;;14.90;4.30;;;;;;;22.45;57.72;101846.00;5035149;28;20071;-71
2023/06/27 05:42:52;;;;;;;15.75;4.35;;;;;;;23.52;53.92;101833.53;5036117;28;20049;-70
2023/06/27 05:45:19;;;;;;;11.70;3.90;;;;;;;24.25;51.31;101835.63;5034710;28;20120;-71
2023/06/27 05:47:47;;;;;;;12.52;4.65;;;;;;;24.29;50.59;101827.22;5035530;28;20042;-70
2023/06/27 05:50:14;;;;;;;11.73;4.15;;;;;;;24.69;49.17;101841.44;5029116;28;20109;-70
2023/06/27 05:52:41;;;;;;;16.50;3.38;;;;;;;25.94;47.42;101836.38;5036974;28;20052;-71
2023/06/27 05:55:08;;;;;;;11.32;3.80;;;;;;;26.69;45.39;101831.22;5035756;28;20124;-71
2023/06/27 05:57:35;;;;;;;16.00;3.65;;;;;;;27.32;43.62;101825.88;5037115;28;20038;-71
2023/06/27 06:00:03;;;;;;;14.57;3.75;;;;;;;27.66;41.51;101835.63;5032571;28;20124;-71
2023/06/27 06:02:38;;;;;;;14.80;4.28;;;;;;;27.96;40.97;101823.06;5030910;28;20053;-71
2023/06/27 06:05:08;;;;;;;10.63;3.85;;;;;;;28.37;40.33;101829.34;5028740;28;20537;-71
2023/06/27 06:07:35;;;;;;;10.75;3.47;;;;;;;28.82;38.91;101830.69;5039505;28;20052;-71
2023/06/27 06:10:02;;;;;;;10.80;4.15;;;;;;;29.40;37.81;101835.22;5033892;28;20122;-72
2023/06/27 06:12:30;;;;;;;13.30;3.92;;;;;;;29.97;36.59;101830.75;5046605;28;20038;-71
2023/06/27 06:14:57;;;;;;;16.50;3.85;;;;;;;30.28;36.19;101836.72;5045966;28;20506;-71
2023/06/27 06:17:24;;;;;;;11.95;4.10;;;;;;;30.75;35.75;101840.31;5046917;28;20046;-71
2023/06/27 06:19:51;;;;;;;11.65;4.05;;;;;;;31.06;34.39;101835.28;5043843;28;20045;-71
2023/06/27 06:22:18;;;;;;;10.45;3.63;;;;;;;30.55;34.53;101832.31;5047986;28;20096;-71
2023/06/27 06:24:45;;;;;;;11.45;3.97;;;;;;;28.70;37.06;101826.38;5046038;28;20046;-71
2023/06/27 06:27:12;;;;;;;10.60;4.13;;;;;;;26.21;41.23;101833.28;5045886;28;20150;-70
2023/06/27 06:29:39;;;;;;;13.65;4.15;;;;;;;24.29;45.87;101842.50;5043495;28;20050;-73
2023/06/27 06:32:07;;;;;;;16.65;4.88;;;;;;;22.98;49.62;101847.06;5036872;28;20113;-73
2023/06/27 06:34:34;;;;;;;11.73;4.45;;;;;;;22.01;52.69;101844.31;5027537;28;20100;-73
2023/06/27 06:37:02;;;;;;;15.63;4.45;;;;;;;21.37;55.04;101847.28;5035885;28;20046;-72
2023/06/27 06:39:29;;;;;;;16.88;5.22;;;;;;;20.91;57.36;101848.19;5043835;28;20281;-73
2023/06/27 06:41:56;;;;;;;18.55;5.25;;;;;;;20.54;58.64;101847.59;5045707;28;20094;-73
2023/06/27 06:44:24;;;;;;;20.73;5.32;;;;;;;20.35;59.36;101855.84;5043401;28;20041;-73
2023/06/27 06:46:51;;;;;;;13.50;5.10;;;;;;;20.18;60.46;101862.97;5045033;28;20034;-72
2023/06/27 06:49:19;;;;;;;16.15;5.00;;;;;;;20.05;61.10;101862.78;5046372;28;20072;-71
2023/06/27 06:51:46;;;;;;;16.60;5.53;;;;;;;19.93;62.00;101856.28;5046205;28;20088;-73
2023/06/27 06:54:13;;;;;;;17.20;6.03;;;;;;;19.82;62.44;101858.63;5046565;28;20052;-73
2023/06/27 06:56:40;;;;;;;14.15;5.22;;;;;;;19.76;62.96;101862.50;5046900;28;20042;-73
2023/06/27 06:59:07;;;;;;;15.73;5.70;;;;;;;19.75;62.72;101870.59;5046404;28;20042;-73
2023/06/27 07:01:34;;;;;;;18.42;5.60;;;;;;;19.74;63.21;101863.53;5046079;28;20092;-74
2023/06/27 07:04:02;;;;;;;18.10;5.70;;;;;;;19.81;62.74;101867.59;5046831;28;20049;-74
2023/06/27 07:06:29;;;;;;;15.38;5.38;;;;;;;19.90;62.68;101861.78;5048123;28;20072;-73
2023/06/27 07:08:56;;;;;;;14.00;5.53;;;;;;;19.98;63.12;101869.41;5046498;28;20567;-74
2023/06/27 07:11:23;;;;;;;14.38;5.20;;;;;;;20.04;63.22;101874.44;5046780;28;20354;-73
2023/06/27 07:13:50;;;;;;;10.63;5.00;;;;;;;20.16;62.63;101868.41;5046919;28;20552;-73
2023/06/27 07:16:17;;;;;;;20.08;5.88;;;;;;;20.25;62.50;101868.84;5045286;28;20111;-74
2023/06/27 07:18:45;;;;;;;12.10;4.90;;;;;;;20.35;61.97;101867.38;5040333;28;20054;-73
2023/06/27 07:21:12;;;;;;;10.98;4.78;;;;;;;20.45;61.50;101871.28;5047290;28;20067;-74
2023/06/27 07:23:39;;;;;;;13.88;4.85;;;;;;;20.53;59.84;101868.19;5042182;28;20053;-72
2023/06/27 07:26:06;;;;;;;16.90;4.53;;;;;;;20.63;59.70;101868.50;5045918;28;20045;-73
2023/06/27 07:28:33;;;;;;;13.32;5.38;;;;;;;20.70;58.95;101856.50;5045397;28;20080;-74
2023/06/27 07:31:00;;;;;;;15.15;4.05;;;;;;;20.82;58.12;101867.47;5047051;28;20072;-73
2023/06/27 07:33:27;;;;;;;8.23;3.35;;;;;;;20.99;57.14;101855.78;5046275;28;20053;-73
2023/06/27 07:35:54;;;;;;;8.82;3.13;;;;;;;21.33;55.65;101860.00;5028624;28;20057;-73
2023/06/27 07:38:22;;;;;;;9.90;2.97;;;;;;;21.54;54.29;101857.88;5046160;28;20557;-73
2023/06/27 07:40:49;;;;;;;8.30;2.28;;;;;;;21.63;53.80;101852.94;5045987;28;20100;-72
2023/06/27 07:43:17;;;;;;;12.52;3.03;;;;;;;21.75;53.85;101864.72;5047064;28;20044;-72
2023/06/27 07:45:45;;;;;;;12.20;3.20;;;;;;;21.87;53.40;101869.34;5047190;28;20037;-73
2023/06/27 07:48:12;;;;;;;9.25;2.15;;;;;;;21.96;51.50;101868.75;5045755;28;20473;-72
2023/06/27 07:50:39;;;;;;;6.22;1.77;;;;;;;22.08;50.19;101868.94;5048019;28;20041;-72
2023/06/27 07:53:06;;;;;;;6.95;1.90;;;;;;;22.13;50.43;101853.44;5046232;28;20131;-72
2023/06/27 07:55:34;;;;;;;14.43;2.33;;;;;;;22.30;50.31;101855.00;5047295;28;20136;-72
2023/06/27 07:58:01;;;;;;;6.20;2.17;;;;;;;22.33;50.07;101858.34;5047232;28;20041;-73
2023/06/27 08:00:28;;;;;;;7.32;1.77;;;;;;;22.40;50.20;101856.19;5035869;28;20050;-72
2023/06/27 08:02:55;;;;;;;9.35;2.28;;;;;;;22.44;49.87;101849.66;5025443;28;20121;-71
2023/06/27 08:05:23;;;;;;;7.28;2.10;;;;;;;22.54;49.33;101847.22;5026752;28;20046;-72
2023/06/27 08:07:50;;;;;;;13.35;2.65;;;;;;;22.58;49.27;101848.75;5027208;28;20034;-72
2023/06/27 08:10:17;;;;;;;13.00;2.55;;;;;;;22.65;49.94;101850.06;5039235;28;20117;-71
2023/06/27 08:12:44;;;;;;;12.55;2.10;;;;;;;22.88;50.34;101849.53;5043349;28;20115;-73
2023/06/27 08:15:11;;;;;;;6.68;2.20;;;;;;;22.94;49.15;101849.94;5044436;28;20058;-72
2023/06/27 08:17:38;;;;;;;24.80;10.23;;;;;;;23.14;48.74;101853.16;5045024;28;20038;-73
2023/06/27 08:20:07;;;;;;;8.15;2.20;;;;;;;23.21;47.20;101832.09;5046156;28;20191;-72
2023/06/27 08:22:34;;;;;;;10.93;5.10;;;;;;;23.10;47.16;101827.41;5044445;28;20546;-73
2023/06/27 08:25:01;;;;;;;8.77;1.75;;;;;;;23.12;47.09;101838.94;5046123;28;20038;-72
2023/06/27 08:27:28;;;;;;;6.05;1.73;;;;;;;23.27;46.65;101837.06;5049245;28;20053;-72
2023/06/27 08:29:55;;;;;;;11.35;2.00;;;;;;;23.47;45.99;101837.50;5049205;28;20053;-73
2023/06/27 08:32:22;;;;;;;10.10;5.30;;;;;;;23.56;45.69;101848.47;5048256;28;20048;-73
2023/06/27 08:34:49;;;;;;;9.32;2.25;;;;;;;23.61;45.09;101836.53;5048040;28;20053;-72
2023/06/27 08:37:17;;;;;;;7.50;1.42;;;;;;;23.66;44.23;101831.69;5048304;28;20136;-72
2023/06/27 08:39:51;;;;;;;9.38;2.63;;;;;;;23.55;44.14;101837.81;5049003;28;20675;-74
2023/06/27 08:42:19;;;;;;;11.70;2.40;;;;;;;23.48;44.77;101847.31;5048017;28;20072;-74
2023/06/27 08:44:46;;;;;;;6.57;1.92;;;;;;;23.42;45.21;101837.81;5047134;28;20116;-74
2023/06/27 08:47:20;;;;;;;13.10;2.30;;;;;;;23.55;44.98;101833.28;5048235;28;20046;-75
2023/06/27 08:49:50;;;;;;;9.45;2.00;;;;;;;23.61;45.50;101837.38;5046415;28;20045;-74
2023/06/27 08:52:20;;;;;;;12.18;2.35;;;;;;;23.67;45.15;101828.91;5049600;28;20076;-74
2023/06/27 08:54:55;;;;;;;7.90;1.60;;;;;;;23.63;45.21;101823.84;5048950;28;20053;-73
2023/06/27 08:57:31;;;;;;;8.65;1.92;;;;;;;23.56;44.41;101823.41;5049660;28;20057;-73
2023/06/27 09:00:11;;;;;;;7.15;1.67;;;;;;;23.49;44.03;101835.56;5039671;28;20037;-74
2023/06/27 09:02:42;;;;;;;7.25;1.58;;;;;;;23.50;45.17;101821.16;5040091;28;20071;-73
2023/06/27 09:05:09;;;;;;;5.05;1.65;;;;;;;23.69;44.49;101826.97;5044596;28;20072;-74
2023/06/27 09:07:37;;;;;;;4.38;1.48;;;;;;;23.93;43.70;101814.56;5049170;28;20045;-74
2023/06/27 09:10:05;;;;;;;9.88;1.90;;;;;;;24.01;43.51;101818.44;5043067;28;20461;-74
2023/06/27 09:12:33;;;;;;;7.75;1.80;;;;;;;24.00;42.97;101827.50;5041309;28;20037;-74
2023/06/27 09:15:00;;;;;;;7.80;1.95;;;;;;;23.97;43.79;101824.16;5047477;28;20080;-72
2023/06/27 09:17:27;;;;;;;12.05;1.98;;;;;;;24.13;43.00;101827.47;5049078;28;20053;-73
2023/06/27 09:19:55;;;;;;;13.88;1.98;;;;;;;24.23;42.80;101827.63;5047174;28;20053;-74
2023/06/27 09:22:23;;;;;;;9.65;1.70;;;;;;;24.13;41.87;101832.84;5048346;28;20127;-74
2023/06/27 09:25:14;;;;;;;3.58;1.10;;;;;;;23.95;42.72;101818.88;5046674;28;20537;-73
2023/06/27 09:27:41;;;;;;;6.93;1.35;;;;;;;23.94;42.83;101817.13;5047694;28;20111;-73
2023/06/27 09:30:11;;;;;;;4.65;1.63;;;;;;;23.80;43.04;101825.34;5048730;28;20044;-73
2023/06/27 09:32:59;;;;;;;15.10;1.85;;;;;;;23.66;42.02;101827.19;5048907;28;20041;-73
2023/06/27 09:35:27;;;;;;;9.68;1.45;;;;;;;23.41;42.05;101826.19;5045485;28;20053;-74
2023/06/27 09:38:08;;;;;;;5.55;1.20;;;;;;;23.25;42.78;101831.75;5047465;28;20049;-73
2023/06/27 09:40:38;;;;;;;10.50;1.60;;;;;;;23.17;43.25;101825.19;5047702;28;20073;-74
2023/06/27 09:43:08;;;;;;;13.38;2.05;;;;;;;23.20;43.26;101820.47;5040461;28;20115;-73
2023/06/27 09:45:36;;;;;;;7.57;1.40;;;;;;;23.14;42.41;101831.63;5036326;28;20038;-73
2023/06/27 09:48:09;;;;;;;9.60;1.40;;;;;;;22.99;44.02;101836.22;5045582;28;20514;-73
2023/06/27 09:50:37;;;;;;;24.60;2.70;;;;;;;22.92;44.05;101832.22;5037913;28;20045;-71
2023/06/27 09:53:05;;;;;;;5.95;1.50;;;;;;;22.87;43.71;101840.56;5047878;28;20129;-73
2023/06/27 09:55:32;;;;;;;7.47;1.30;;;;;;;22.87;44.22;101840.56;5046662;28;20591;-73
2023/06/27 09:57:59;;;;;;;4.47;1.50;;;;;;;22.90;45.15;101845.75;5048554;28;20101;-73
2023/06/27 10:00:28;;;;;;;5.82;1.58;;;;;;;22.94;44.28;101838.34;5046733;28;20038;-73
2023/06/27 10:02:56;;;;;;;9.10;1.55;;;;;;;22.88;44.46;101839.63;5046151;28;20052;-72
2023/06/27 10:05:23;;;;;;;8.15;1.70;;;;;;;22.80;44.93;101834.75;5047712;28;20065;-73
2023/06/27 10:07:53;;;;;;;5.45;1.40;;;;;;;22.71;45.34;101837.19;5048345;28;20045;-73
2023/06/27 10:10:25;;;;;;;11.90;1.80;;;;;;;22.70;45.50;101846.22;5047078;28;20045;-73
2023/06/27 10:12:53;;;;;;;4.15;1.48;;;;;;;22.84;45.52;101834.56;5047785;28;20046;-73
2023/06/27 10:15:20;;;;;;;3.70;1.27;;;;;;;23.06;45.80;101844.72;5047530;28;20034;-72
2023/06/27 10:17:48;;;;;;;4.20;1.30;;;;;;;23.22;45.32;101840.06;5031160;28;20041;-73
2023/06/27 10:20:16;;;;;;;3.92;1.20;;;;;;;23.35;44.35;101834.69;5042109;28;20197;-73
2023/06/27 10:22:46;;;;;;;4.78;1.23;;;;;;;23.43;42.19;101839.56;5046651;28;20303;-73
2023/06/27 10:25:13;;;;;;;6.65;1.30;;;;;;;23.54;39.78;101830.72;5046862;28;20088;-74
2023/06/27 10:27:42;;;;;;;8.57;1.23;;;;;;;23.45;38.90;101840.31;5045880;28;20057;-73
2023/06/27 10:30:29;;;;;;;8.10;1.02;;;;;;;23.36;37.85;101851.69;5043610;28;20417;-74
2023/06/27 10:33:18;;;;;;;5.53;1.17;;;;;;;23.41;39.64;101845.03;5036754;28;20170;-73
2023/06/27 10:35:51;;;;;;;4.20;0.98;;;;;;;23.60;39.72;101841.06;5041281;28;20117;-74
2023/06/27 10:38:18;;;;;;;14.32;1.40;;;;;;;23.86;38.76;101844.59;5046594;28;20052;-73
2023/06/27 10:41:06;;;;;;;4.28;0.93;;;;;;;23.95;38.25;101835.03;5047204;28;20568;-74
2023/06/27 10:43:38;;;;;;;4.95;1.02;;;;;;;23.98;38.59;101839.34;5028382;28;20042;-73
2023/06/27 10:46:09;;;;;;;4.45;0.95;;;;;;;24.13;37.49;101857.09;5042346;28;20561;-72
2023/06/27 10:48:54;;;;;;;5.82;0.93;;;;;;;24.16;37.03;101837.16;5047171;28;20085;-73
2023/06/27 10:51:32;;;;;;;7.18;1.10;;;;;;;24.19;38.20;101847.72;5045934;28;20041;-73
2023/06/27 10:54:08;;;;;;;5.93;1.15;;;;;;;24.34;37.01;101841.19;5048085;28;20042;-73
2023/06/27 10:56:45;;;;;;;5.32;0.60;;;;;;;24.40;37.06;101845.28;5046832;28;20250;-74
2023/06/27 10:59:18;;;;;;;6.75;1.00;;;;;;;24.28;37.77;101833.56;5039321;28;20437;-73
2023/06/27 11:02:06;;;;;;;7.85;1.30;;;;;;;24.19;38.30;101835.09;5043177;28;20041;-73
2023/06/27 11:04:43;;;;;;;5.88;0.93;;;;;;;24.16;37.62;101839.84;5045518;28;20042;-73
2023/06/27 11:07:17;;;;;;;6.53;1.15;;;;;;;24.10;38.51;101826.84;5044097;28;20052;-73
2023/06/27 11:09:55;;;;;;;5.03;1.10;;;;;;;24.05;39.38;101829.88;5047240;28;20057;-73
2023/06/27 11:12:23;;;;;;;5.53;1.50;;;;;;;23.99;39.05;101835.66;5047780;28;20057;-73
2023/06/27 11:14:53;;;;;;;6.18;1.50;;;;;;;23.98;38.53;101828.56;5046478;28;20117;-73
2023/06/27 11:17:23;;;;;;;6.82;1.65;;;;;;;23.92;38.53;101845.13;5046717;28;20045;-74
2023/06/27 11:19:50;;;;;;;6.10;1.70;;;;;;;23.97;39.53;101840.31;5044502;28;20046;-73
2023/06/27 11:22:18;;;;;;;6.07;1.35;;;;;;;24.27;40.24;101834.53;5029257;28;20164;-74
2023/06/27 11:24:46;;;;;;;12.27;1.60;;;;;;;24.59;41.00;101834.00;5041152;28;20064;-74
2023/06/27 11:27:13;;;;;;;5.68;1.27;;;;;;;24.90;38.29;101826.34;5044425;28;20064;-74
2023/06/27 11:29:42;;;;;;;4.47;1.25;;;;;;;25.01;38.44;101827.34;5046354;28;20052;-72
2023/06/27 11:32:10;;;;;;;8.15;1.23;;;;;;;25.17;38.18;101835.13;5045790;28;20053;-74